sensor_id;sensor_type;location;lat;lon;timestamp;P1;durP1;ratioP1;P2;durP2;ratioP2
6420;SDS011;3243;50.958;7.012;2023-10-09T00:00:57;21.97;;;12.17;;
6420;SDS011;3243;50.958;7.012;2023-10-09T00:03:31;23.17;;;14.00;;
6420;SDS011;3243;50.958;7.012;2023-10-09T00:05:58;23.57;;;13.77;;
6420;SDS011;3243;50.958;7.012;2023-10-09T00:08:25;20.50;;;12.80;;
6420;SDS011;3243;50.958;7.012;2023-10-09T00:11:01;19.53;;;13.03;;
6420;SDS011;3243;50.958;7.012;2023-10-09T00:13:42;19.10;;;12.57;;
6420;SDS011;3243;50.958;7.012;2023-10-09T00:16:18;20.97;;;11.93;;
6420;SDS011;3243;50.958;7.012;2023-10-09T00:19:09;19.40;;;11.90;;
6420;SDS011;3243;50.958;7.012;2023-10-09T00:21:59;20.83;;;11.73;;
6420;SDS011;3243;50.958;7.012;2023-10-09T00:24:33;21.63;;;12.37;;
6420;SDS011;3243;50.958;7.012;2023-10-09T00:27:00;19.43;;;12.30;;
6420;SDS011;3243;50.958;7.012;2023-10-09T00:29:47;19.33;;;12.07;;
6420;SDS011;3243;50.958;7.012;2023-10-09T00:32:15;21.53;;;11.80;;
6420;SDS011;3243;50.958;7.012;2023-10-09T00:34:42;19.93;;;11.83;;
6420;SDS011;3243;50.958;7.012;2023-10-09T00:37:10;21.87;;;12.50;;
6420;SDS011;3243;50.958;7.012;2023-10-09T00:39:44;20.60;;;11.67;;
6420;SDS011;3243;50.958;7.012;2023-10-09T00:42:13;15.83;;;10.13;;
6420;SDS011;3243;50.958;7.012;2023-10-09T00:44:52;21.20;;;11.40;;
6420;SDS011;3243;50.958;7.012;2023-10-09T00:47:19;23.00;;;12.30;;
6420;SDS011;3243;50.958;7.012;2023-10-09T00:50:06;22.00;;;11.87;;
6420;SDS011;3243;50.958;7.012;2023-10-09T00:52:48;18.87;;;11.50;;
6420;SDS011;3243;50.958;7.012;2023-10-09T00:55:20;16.70;;;10.63;;
6420;SDS011;3243;50.958;7.012;2023-10-09T00:57:54;17.90;;;10.50;;
6420;SDS011;3243;50.958;7.012;2023-10-09T01:00:26;19.40;;;11.27;;
6420;SDS011;3243;50.958;7.012;2023-10-09T01:03:14;18.43;;;11.20;;
6420;SDS011;3243;50.958;7.012;2023-10-09T01:05:43;16.27;;;11.00;;
6420;SDS011;3243;50.958;7.012;2023-10-09T01:08:18;19.77;;;10.47;;
6420;SDS011;3243;50.958;7.012;2023-10-09T01:10:55;18.17;;;10.30;;
6420;SDS011;3243;50.958;7.012;2023-10-09T01:13:23;15.67;;;10.13;;
6420;SDS011;3243;50.958;7.012;2023-10-09T01:16:10;20.47;;;10.33;;
6420;SDS011;3243;50.958;7.012;2023-10-09T01:18:49;18.03;;;10.47;;
6420;SDS011;3243;50.958;7.012;2023-10-09T01:21:17;17.80;;;10.37;;
6420;SDS011;3243;50.958;7.012;2023-10-09T01:23:49;14.97;;;10.43;;
6420;SDS011;3243;50.958;7.012;2023-10-09T01:26:36;16.00;;;10.33;;
6420;SDS011;3243;50.958;7.012;2023-10-09T01:29:06;17.43;;;9.80;;
6420;SDS011;3243;50.958;7.012;2023-10-09T01:31:40;17.53;;;9.93;;
6420;SDS011;3243;50.958;7.012;2023-10-09T01:34:31;20.50;;;10.43;;
6420;SDS011;3243;50.958;7.012;2023-10-09T01:37:08;14.57;;;9.60;;
6420;SDS011;3243;50.958;7.012;2023-10-09T01:39:49;19.17;;;10.73;;
6420;SDS011;3243;50.958;7.012;2023-10-09T01:42:25;15.17;;;9.87;;
6420;SDS011;3243;50.958;7.012;2023-10-09T01:45:12;13.00;;;9.00;;
6420;SDS011;3243;50.958;7.012;2023-10-09T01:47:39;19.70;;;10.60;;
6420;SDS011;3243;50.958;7.012;2023-10-09T01:50:06;16.93;;;10.03;;
6420;SDS011;3243;50.958;7.012;2023-10-09T01:52:51;16.40;;;10.60;;
6420;SDS011;3243;50.958;7.012;2023-10-09T01:55:18;24.67;;;11.20;;
6420;SDS011;3243;50.958;7.012;2023-10-09T01:57:55;15.57;;;9.53;;
6420;SDS011;3243;50.958;7.012;2023-10-09T02:00:25;15.77;;;10.27;;
6420;SDS011;3243;50.958;7.012;2023-10-09T02:02:55;18.50;;;10.73;;
6420;SDS011;3243;50.958;7.012;2023-10-09T02:05:22;17.67;;;10.63;;
6420;SDS011;3243;50.958;7.012;2023-10-09T02:07:49;16.00;;;9.30;;
6420;SDS011;3243;50.958;7.012;2023-10-09T02:10:20;16.97;;;9.93;;
6420;SDS011;3243;50.958;7.012;2023-10-09T02:12:51;14.13;;;9.33;;
6420;SDS011;3243;50.958;7.012;2023-10-09T02:15:26;16.33;;;9.40;;
6420;SDS011;3243;50.958;7.012;2023-10-09T02:18:13;19.60;;;10.80;;
6420;SDS011;3243;50.958;7.012;2023-10-09T02:20:44;15.40;;;9.40;;
6420;SDS011;3243;50.958;7.012;2023-10-09T02:23:22;17.53;;;9.90;;
6420;SDS011;3243;50.958;7.012;2023-10-09T02:25:56;13.00;;;8.73;;
6420;SDS011;3243;50.958;7.012;2023-10-09T02:28:23;13.67;;;9.53;;
6420;SDS011;3243;50.958;7.012;2023-10-09T02:30:50;13.13;;;8.73;;
6420;SDS011;3243;50.958;7.012;2023-10-09T02:33:18;12.50;;;8.67;;
6420;SDS011;3243;50.958;7.012;2023-10-09T02:35:45;15.57;;;9.43;;
6420;SDS011;3243;50.958;7.012;2023-10-09T02:38:17;14.67;;;9.20;;
6420;SDS011;3243;50.958;7.012;2023-10-09T02:40:52;16.90;;;10.47;;
6420;SDS011;3243;50.958;7.012;2023-10-09T02:43:34;14.13;;;9.23;;
6420;SDS011;3243;50.958;7.012;2023-10-09T02:46:14;13.20;;;8.80;;
6420;SDS011;3243;50.958;7.012;2023-10-09T02:48:56;15.40;;;8.87;;
6420;SDS011;3243;50.958;7.012;2023-10-09T02:51:30;13.47;;;9.37;;
6420;SDS011;3243;50.958;7.012;2023-10-09T02:54:07;14.83;;;9.57;;
6420;SDS011;3243;50.958;7.012;2023-10-09T02:56:52;15.27;;;9.00;;
6420;SDS011;3243;50.958;7.012;2023-10-09T02:59:33;14.47;;;9.57;;
6420;SDS011;3243;50.958;7.012;2023-10-09T03:02:00;14.87;;;8.67;;
6420;SDS011;3243;50.958;7.012;2023-10-09T03:04:28;14.53;;;8.77;;
6420;SDS011;3243;50.958;7.012;2023-10-09T03:06:59;13.47;;;8.83;;
6420;SDS011;3243;50.958;7.012;2023-10-09T03:09:26;16.63;;;9.87;;
6420;SDS011;3243;50.958;7.012;2023-10-09T03:11:55;13.30;;;8.73;;
6420;SDS011;3243;50.958;7.012;2023-10-09T03:14:32;13.97;;;8.53;;
6420;SDS011;3243;50.958;7.012;2023-10-09T03:17:02;12.93;;;8.43;;
6420;SDS011;3243;50.958;7.012;2023-10-09T03:19:29;13.17;;;8.63;;
6420;SDS011;3243;50.958;7.012;2023-10-09T03:22:03;13.00;;;8.27;;
6420;SDS011;3243;50.958;7.012;2023-10-09T03:24:31;13.67;;;8.20;;
6420;SDS011;3243;50.958;7.012;2023-10-09T03:26:58;14.77;;;8.97;;
6420;SDS011;3243;50.958;7.012;2023-10-09T03:29:25;13.17;;;8.07;;
6420;SDS011;3243;50.958;7.012;2023-10-09T03:31:53;13.00;;;8.17;;
6420;SDS011;3243;50.958;7.012;2023-10-09T03:34:22;13.73;;;8.90;;
6420;SDS011;3243;50.958;7.012;2023-10-09T03:36:52;14.93;;;8.90;;
6420;SDS011;3243;50.958;7.012;2023-10-09T03:39:31;15.23;;;8.67;;
6420;SDS011;3243;50.958;7.012;2023-10-09T03:42:07;15.03;;;9.63;;
6420;SDS011;3243;50.958;7.012;2023-10-09T03:44:46;14.67;;;8.57;;
6420;SDS011;3243;50.958;7.012;2023-10-09T03:47:19;13.33;;;8.40;;
6420;SDS011;3243;50.958;7.012;2023-10-09T03:49:51;13.57;;;8.83;;
6420;SDS011;3243;50.958;7.012;2023-10-09T03:52:19;13.37;;;8.17;;
6420;SDS011;3243;50.958;7.012;2023-10-09T03:54:46;12.70;;;8.53;;
6420;SDS011;3243;50.958;7.012;2023-10-09T03:57:13;15.93;;;8.73;;
6420;SDS011;3243;50.958;7.012;2023-10-09T03:59:45;15.13;;;8.90;;
6420;SDS011;3243;50.958;7.012;2023-10-09T04:02:15;12.73;;;8.97;;
6420;SDS011;3243;50.958;7.012;2023-10-09T04:04:42;13.63;;;8.97;;
6420;SDS011;3243;50.958;7.012;2023-10-09T04:07:14;12.43;;;8.80;;
6420;SDS011;3243;50.958;7.012;2023-10-09T04:09:44;16.07;;;9.87;;
6420;SDS011;3243;50.958;7.012;2023-10-09T04:12:14;12.27;;;8.50;;
6420;SDS011;3243;50.958;7.012;2023-10-09T04:14:51;12.43;;;8.20;;
6420;SDS011;3243;50.958;7.012;2023-10-09T04:17:21;14.73;;;9.43;;
6420;SDS011;3243;50.958;7.012;2023-10-09T04:19:49;13.60;;;8.30;;
6420;SDS011;3243;50.958;7.012;2023-10-09T04:22:36;14.90;;;9.83;;
6420;SDS011;3243;50.958;7.012;2023-10-09T04:25:20;13.43;;;8.80;;
6420;SDS011;3243;50.958;7.012;2023-10-09T04:27:55;13.87;;;8.40;;
6420;SDS011;3243;50.958;7.012;2023-10-09T04:30:55;17.00;;;9.73;;
6420;SDS011;3243;50.958;7.012;2023-10-09T04:33:23;18.63;;;10.33;;
6420;SDS011;3243;50.958;7.012;2023-10-09T04:36:02;15.30;;;10.50;;
6420;SDS011;3243;50.958;7.012;2023-10-09T04:38:58;13.40;;;8.37;;
6420;SDS011;3243;50.958;7.012;2023-10-09T04:41:29;14.10;;;9.40;;
6420;SDS011;3243;50.958;7.012;2023-10-09T04:44:18;14.13;;;7.90;;
6420;SDS011;3243;50.958;7.012;2023-10-09T04:46:46;13.87;;;9.00;;
6420;SDS011;3243;50.958;7.012;2023-10-09T04:49:41;13.67;;;8.33;;
6420;SDS011;3243;50.958;7.012;2023-10-09T04:52:22;11.33;;;8.40;;
6420;SDS011;3243;50.958;7.012;2023-10-09T04:54:56;13.60;;;8.23;;
6420;SDS011;3243;50.958;7.012;2023-10-09T04:57:33;12.87;;;8.90;;
6420;SDS011;3243;50.958;7.012;2023-10-09T05:00:10;13.00;;;8.43;;
6420;SDS011;3243;50.958;7.012;2023-10-09T05:02:57;17.07;;;10.03;;
6420;SDS011;3243;50.958;7.012;2023-10-09T05:05:31;12.90;;;8.43;;
6420;SDS011;3243;50.958;7.012;2023-10-09T05:08:17;12.87;;;9.07;;
6420;SDS011;3243;50.958;7.012;2023-10-09T05:10:51;13.37;;;8.70;;
6420;SDS011;3243;50.958;7.012;2023-10-09T05:18:45;13.37;;;8.77;;
6420;SDS011;3243;50.958;7.012;2023-10-09T05:21:23;15.70;;;9.70;;
6420;SDS011;3243;50.958;7.012;2023-10-09T05:23:59;13.40;;;8.77;;
6420;SDS011;3243;50.958;7.012;2023-10-09T05:26:56;15.40;;;8.80;;
6420;SDS011;3243;50.958;7.012;2023-10-09T05:29:43;11.93;;;8.73;;
6420;SDS011;3243;50.958;7.012;2023-10-09T05:32:48;14.87;;;8.70;;
6420;SDS011;3243;50.958;7.012;2023-10-09T05:35:15;16.20;;;9.87;;
6420;SDS011;3243;50.958;7.012;2023-10-09T05:37:42;14.10;;;9.60;;
6420;SDS011;3243;50.958;7.012;2023-10-09T05:40:09;14.27;;;9.30;;
6420;SDS011;3243;50.958;7.012;2023-10-09T05:42:42;11.93;;;8.50;;
6420;SDS011;3243;50.958;7.012;2023-10-09T05:45:14;12.07;;;8.57;;
6420;SDS011;3243;50.958;7.012;2023-10-09T05:50:32;14.13;;;9.07;;
6420;SDS011;3243;50.958;7.012;2023-10-09T05:52:59;15.83;;;9.73;;
6420;SDS011;3243;50.958;7.012;2023-10-09T05:55:27;15.73;;;9.73;;
6420;SDS011;3243;50.958;7.012;2023-10-09T05:58:14;13.73;;;8.87;;
6420;SDS011;3243;50.958;7.012;2023-10-09T06:00:59;13.20;;;9.43;;
6420;SDS011;3243;50.958;7.012;2023-10-09T06:03:32;13.33;;;9.00;;
6420;SDS011;3243;50.958;7.012;2023-10-09T06:06:14;12.60;;;8.97;;
6420;SDS011;3243;50.958;7.012;2023-10-09T06:09:02;13.90;;;8.53;;
6420;SDS011;3243;50.958;7.012;2023-10-09T06:11:54;14.87;;;10.03;;
6420;SDS011;3243;50.958;7.012;2023-10-09T06:14:41;16.77;;;10.30;;
6420;SDS011;3243;50.958;7.012;2023-10-09T06:17:08;14.60;;;8.87;;
6420;SDS011;3243;50.958;7.012;2023-10-09T06:19:51;13.87;;;8.80;;
6420;SDS011;3243;50.958;7.012;2023-10-09T06:22:25;15.13;;;9.63;;
6420;SDS011;3243;50.958;7.012;2023-10-09T06:25:10;13.97;;;9.00;;
6420;SDS011;3243;50.958;7.012;2023-10-09T06:27:39;14.33;;;9.00;;
6420;SDS011;3243;50.958;7.012;2023-10-09T06:30:08;14.80;;;9.23;;
6420;SDS011;3243;50.958;7.012;2023-10-09T06:32:39;13.50;;;8.83;;
6420;SDS011;3243;50.958;7.012;2023-10-09T06:35:27;12.83;;;8.50;;
6420;SDS011;3243;50.958;7.012;2023-10-09T06:37:57;12.73;;;8.27;;
6420;SDS011;3243;50.958;7.012;2023-10-09T06:43:13;12.33;;;8.57;;
6420;SDS011;3243;50.958;7.012;2023-10-09T06:45:43;14.37;;;9.33;;
6420;SDS011;3243;50.958;7.012;2023-10-09T06:48:14;14.73;;;8.93;;
6420;SDS011;3243;50.958;7.012;2023-10-09T06:51:10;11.03;;;7.77;;
6420;SDS011;3243;50.958;7.012;2023-10-09T06:56:23;15.30;;;9.07;;
6420;SDS011;3243;50.958;7.012;2023-10-09T06:58:51;16.07;;;9.23;;
6420;SDS011;3243;50.958;7.012;2023-10-09T07:01:38;15.47;;;8.30;;
6420;SDS011;3243;50.958;7.012;2023-10-09T07:04:05;16.97;;;8.27;;
6420;SDS011;3243;50.958;7.012;2023-10-09T07:06:51;13.53;;;8.63;;
6420;SDS011;3243;50.958;7.012;2023-10-09T07:09:18;11.23;;;7.63;;
6420;SDS011;3243;50.958;7.012;2023-10-09T07:11:47;12.87;;;8.43;;
6420;SDS011;3243;50.958;7.012;2023-10-09T07:14:17;13.53;;;8.23;;
6420;SDS011;3243;50.958;7.012;2023-10-09T07:19:27;14.93;;;7.87;;
6420;SDS011;3243;50.958;7.012;2023-10-09T07:22:01;11.23;;;7.63;;
6420;SDS011;3243;50.958;7.012;2023-10-09T07:24:42;13.97;;;7.97;;
6420;SDS011;3243;50.958;7.012;2023-10-09T07:27:10;14.33;;;8.77;;
6420;SDS011;3243;50.958;7.012;2023-10-09T07:29:39;13.90;;;8.57;;
6420;SDS011;3243;50.958;7.012;2023-10-09T07:32:16;13.47;;;7.80;;
6420;SDS011;3243;50.958;7.012;2023-10-09T07:34:50;11.73;;;7.30;;
6420;SDS011;3243;50.958;7.012;2023-10-09T07:37:23;14.73;;;7.30;;
6420;SDS011;3243;50.958;7.012;2023-10-09T07:39:56;13.10;;;7.53;;
6420;SDS011;3243;50.958;7.012;2023-10-09T07:42:24;13.87;;;8.50;;
6420;SDS011;3243;50.958;7.012;2023-10-09T07:45:20;14.00;;;8.30;;
6420;SDS011;3243;50.958;7.012;2023-10-09T07:47:48;10.07;;;7.53;;
6420;SDS011;3243;50.958;7.012;2023-10-09T07:50:35;12.07;;;7.40;;
6420;SDS011;3243;50.958;7.012;2023-10-09T07:53:15;12.90;;;8.00;;
6420;SDS011;3243;50.958;7.012;2023-10-09T07:55:52;13.93;;;7.97;;
6420;SDS011;3243;50.958;7.012;2023-10-09T07:58:24;14.13;;;7.60;;
6420;SDS011;3243;50.958;7.012;2023-10-09T08:00:52;11.75;;;7.55;;
6420;SDS011;3243;50.958;7.012;2023-10-09T08:03:34;14.27;;;8.03;;
6420;SDS011;3243;50.958;7.012;2023-10-09T08:06:02;12.33;;;7.93;;
6420;SDS011;3243;50.958;7.012;2023-10-09T08:08:48;13.93;;;8.80;;
6420;SDS011;3243;50.958;7.012;2023-10-09T08:11:34;9.97;;;7.50;;
6420;SDS011;3243;50.958;7.012;2023-10-09T08:14:21;13.47;;;8.23;;
6420;SDS011;3243;50.958;7.012;2023-10-09T08:16:59;13.23;;;8.10;;
6420;SDS011;3243;50.958;7.012;2023-10-09T08:19:52;12.30;;;7.43;;
6420;SDS011;3243;50.958;7.012;2023-10-09T08:22:37;10.53;;;7.47;;
6420;SDS011;3243;50.958;7.012;2023-10-09T08:25:10;12.30;;;7.40;;
6420;SDS011;3243;50.958;7.012;2023-10-09T08:27:54;14.13;;;8.07;;
6420;SDS011;3243;50.958;7.012;2023-10-09T08:30:45;14.38;;;8.35;;
6420;SDS011;3243;50.958;7.012;2023-10-09T08:33:21;12.57;;;7.40;;
6420;SDS011;3243;50.958;7.012;2023-10-09T08:35:55;11.03;;;7.20;;
6420;SDS011;3243;50.958;7.012;2023-10-09T08:38:32;16.88;;;8.38;;
6420;SDS011;3243;50.958;7.012;2023-10-09T08:41:12;14.53;;;8.20;;
6420;SDS011;3243;50.958;7.012;2023-10-09T08:43:52;16.77;;;8.43;;
6420;SDS011;3243;50.958;7.012;2023-10-09T08:46:20;15.70;;;8.30;;
6420;SDS011;3243;50.958;7.012;2023-10-09T08:48:49;18.57;;;8.67;;
6420;SDS011;3243;50.958;7.012;2023-10-09T08:51:17;17.03;;;8.40;;
6420;SDS011;3243;50.958;7.012;2023-10-09T08:53:46;15.50;;;8.33;;
6420;SDS011;3243;50.958;7.012;2023-10-09T08:56:13;14.20;;;8.57;;
6420;SDS011;3243;50.958;7.012;2023-10-09T08:58:49;15.73;;;7.43;;
6420;SDS011;3243;50.958;7.012;2023-10-09T09:01:17;14.87;;;7.60;;
6420;SDS011;3243;50.958;7.012;2023-10-09T09:03:48;14.93;;;7.77;;
6420;SDS011;3243;50.958;7.012;2023-10-09T09:06:20;10.80;;;7.07;;
6420;SDS011;3243;50.958;7.012;2023-10-09T09:08:47;13.60;;;7.07;;
6420;SDS011;3243;50.958;7.012;2023-10-09T09:11:14;12.65;;;6.95;;
6420;SDS011;3243;50.958;7.012;2023-10-09T09:16:32;12.15;;;8.07;;
6420;SDS011;3243;50.958;7.012;2023-10-09T09:19:05;13.18;;;8.30;;
6420;SDS011;3243;50.958;7.012;2023-10-09T09:21:37;11.63;;;6.70;;
6420;SDS011;3243;50.958;7.012;2023-10-09T09:24:07;10.75;;;6.82;;
6420;SDS011;3243;50.958;7.012;2023-10-09T09:26:47;10.30;;;7.30;;
6420;SDS011;3243;50.958;7.012;2023-10-09T09:32:05;15.02;;;6.97;;
6420;SDS011;3243;50.958;7.012;2023-10-09T09:37:20;10.13;;;6.78;;
6420;SDS011;3243;50.958;7.012;2023-10-09T09:39:58;10.85;;;6.15;;
6420;SDS011;3243;50.958;7.012;2023-10-09T09:42:27;12.93;;;6.40;;
6420;SDS011;3243;50.958;7.012;2023-10-09T09:44:58;10.77;;;6.65;;
6420;SDS011;3243;50.958;7.012;2023-10-09T09:47:26;10.07;;;5.80;;
6420;SDS011;3243;50.958;7.012;2023-10-09T09:49:54;9.80;;;5.45;;
6420;SDS011;3243;50.958;7.012;2023-10-09T09:52:37;9.68;;;5.68;;
6420;SDS011;3243;50.958;7.012;2023-10-09T09:55:06;95.65;;;13.52;;
6420;SDS011;3243;50.958;7.012;2023-10-09T09:57:44;33.38;;;8.60;;
6420;SDS011;3243;50.958;7.012;2023-10-09T10:00:19;14.77;;;5.95;;
6420;SDS011;3243;50.958;7.012;2023-10-09T10:03:10;13.73;;;5.82;;
6420;SDS011;3243;50.958;7.012;2023-10-09T10:05:41;10.32;;;6.00;;
6420;SDS011;3243;50.958;7.012;2023-10-09T10:08:19;13.32;;;5.82;;
6420;SDS011;3243;50.958;7.012;2023-10-09T10:10:47;12.52;;;5.40;;
6420;SDS011;3243;50.958;7.012;2023-10-09T10:16:10;7.95;;;5.25;;
6420;SDS011;3243;50.958;7.012;2023-10-09T10:21:34;10.05;;;5.50;;
6420;SDS011;3243;50.958;7.012;2023-10-09T10:27:17;10.68;;;4.75;;
6420;SDS011;3243;50.958;7.012;2023-10-09T10:32:57;6.47;;;4.40;;
6420;SDS011;3243;50.958;7.012;2023-10-09T10:35:38;9.43;;;5.43;;
6420;SDS011;3243;50.958;7.012;2023-10-09T10:38:26;9.10;;;4.95;;
6420;SDS011;3243;50.958;7.012;2023-10-09T10:41:16;10.85;;;5.05;;
6420;SDS011;3243;50.958;7.012;2023-10-09T10:43:46;7.55;;;4.32;;
6420;SDS011;3243;50.958;7.012;2023-10-09T10:46:19;7.70;;;4.40;;
6420;SDS011;3243;50.958;7.012;2023-10-09T10:48:51;7.35;;;4.95;;
6420;SDS011;3243;50.958;7.012;2023-10-09T10:51:26;8.63;;;4.63;;
6420;SDS011;3243;50.958;7.012;2023-10-09T10:54:07;7.57;;;4.35;;
6420;SDS011;3243;50.958;7.012;2023-10-09T10:56:52;7.47;;;4.53;;
6420;SDS011;3243;50.958;7.012;2023-10-09T10:59:23;8.48;;;5.00;;
6420;SDS011;3243;50.958;7.012;2023-10-09T11:01:56;10.35;;;5.45;;
6420;SDS011;3243;50.958;7.012;2023-10-09T11:04:29;8.23;;;4.72;;
6420;SDS011;3243;50.958;7.012;2023-10-09T11:06:56;7.22;;;4.25;;
6420;SDS011;3243;50.958;7.012;2023-10-09T11:09:43;6.40;;;4.50;;
6420;SDS011;3243;50.958;7.012;2023-10-09T11:15:35;7.65;;;4.97;;
6420;SDS011;3243;50.958;7.012;2023-10-09T11:18:22;7.68;;;4.40;;
6420;SDS011;3243;50.958;7.012;2023-10-09T11:20:54;11.82;;;4.88;;
6420;SDS011;3243;50.958;7.012;2023-10-09T11:23:31;6.65;;;3.95;;
6420;SDS011;3243;50.958;7.012;2023-10-09T11:26:05;7.82;;;4.10;;
6420;SDS011;3243;50.958;7.012;2023-10-09T11:29:05;7.50;;;4.40;;
6420;SDS011;3243;50.958;7.012;2023-10-09T11:34:26;6.90;;;4.35;;
6420;SDS011;3243;50.958;7.012;2023-10-09T11:36:58;16.67;;;11.27;;
6420;SDS011;3243;50.958;7.012;2023-10-09T11:39:27;12.38;;;4.82;;
6420;SDS011;3243;50.958;7.012;2023-10-09T11:42:04;6.47;;;3.97;;
6420;SDS011;3243;50.958;7.012;2023-10-09T11:44:39;8.05;;;5.05;;
6420;SDS011;3243;50.958;7.012;2023-10-09T11:47:07;9.43;;;4.97;;
6420;SDS011;3243;50.958;7.012;2023-10-09T11:49:55;9.15;;;5.43;;
6420;SDS011;3243;50.958;7.012;2023-10-09T11:52:54;12.05;;;6.43;;
6420;SDS011;3243;50.958;7.012;2023-10-09T11:55:44;9.32;;;5.20;;
6420;SDS011;3243;50.958;7.012;2023-10-09T11:58:15;7.28;;;4.68;;
6420;SDS011;3243;50.958;7.012;2023-10-09T12:00:49;8.40;;;4.82;;
6420;SDS011;3243;50.958;7.012;2023-10-09T12:03:17;6.88;;;4.40;;
6420;SDS011;3243;50.958;7.012;2023-10-09T12:05:49;8.90;;;4.20;;
6420;SDS011;3243;50.958;7.012;2023-10-09T12:08:16;6.90;;;4.70;;
6420;SDS011;3243;50.958;7.012;2023-10-09T12:10:43;9.10;;;4.38;;
6420;SDS011;3243;50.958;7.012;2023-10-09T12:13:10;8.63;;;4.05;;
6420;SDS011;3243;50.958;7.012;2023-10-09T12:15:37;7.05;;;4.03;;
6420;SDS011;3243;50.958;7.012;2023-10-09T12:18:05;8.27;;;4.60;;
6420;SDS011;3243;50.958;7.012;2023-10-09T12:20:41;7.85;;;4.70;;
6420;SDS011;3243;50.958;7.012;2023-10-09T12:23:08;6.40;;;4.30;;
6420;SDS011;3243;50.958;7.012;2023-10-09T12:25:41;11.38;;;5.15;;
6420;SDS011;3243;50.958;7.012;2023-10-09T12:28:11;7.88;;;4.70;;
6420;SDS011;3243;50.958;7.012;2023-10-09T12:30:38;8.57;;;5.10;;
6420;SDS011;3243;50.958;7.012;2023-10-09T12:33:08;9.07;;;5.07;;
6420;SDS011;3243;50.958;7.012;2023-10-09T12:35:39;9.43;;;5.50;;
6420;SDS011;3243;50.958;7.012;2023-10-09T12:38:07;11.82;;;5.32;;
6420;SDS011;3243;50.958;7.012;2023-10-09T12:40:39;14.10;;;5.15;;
6420;SDS011;3243;50.958;7.012;2023-10-09T12:43:08;7.90;;;5.45;;
6420;SDS011;3243;50.958;7.012;2023-10-09T12:45:43;10.43;;;4.70;;
6420;SDS011;3243;50.958;7.012;2023-10-09T12:48:11;9.23;;;4.93;;
6420;SDS011;3243;50.958;7.012;2023-10-09T12:50:41;9.20;;;5.05;;
6420;SDS011;3243;50.958;7.012;2023-10-09T12:53:08;11.23;;;4.95;;
6420;SDS011;3243;50.958;7.012;2023-10-09T12:55:35;11.27;;;5.10;;
6420;SDS011;3243;50.958;7.012;2023-10-09T12:58:09;9.55;;;5.03;;
6420;SDS011;3243;50.958;7.012;2023-10-09T13:00:41;12.07;;;5.20;;
6420;SDS011;3243;50.958;7.012;2023-10-09T13:03:18;12.48;;;5.68;;
6420;SDS011;3243;50.958;7.012;2023-10-09T13:05:48;10.73;;;5.03;;
6420;SDS011;3243;50.958;7.012;2023-10-09T13:08:22;7.38;;;4.75;;
6420;SDS011;3243;50.958;7.012;2023-10-09T13:11:05;8.20;;;5.00;;
6420;SDS011;3243;50.958;7.012;2023-10-09T13:13:47;8.10;;;5.20;;
6420;SDS011;3243;50.958;7.012;2023-10-09T13:16:18;10.75;;;5.45;;
6420;SDS011;3243;50.958;7.012;2023-10-09T13:18:52;8.63;;;5.00;;
6420;SDS011;3243;50.958;7.012;2023-10-09T13:21:23;10.27;;;4.97;;
6420;SDS011;3243;50.958;7.012;2023-10-09T13:23:58;12.25;;;4.88;;
6420;SDS011;3243;50.958;7.012;2023-10-09T13:26:26;9.90;;;5.30;;
6420;SDS011;3243;50.958;7.012;2023-10-09T13:29:00;9.75;;;5.00;;
6420;SDS011;3243;50.958;7.012;2023-10-09T13:31:29;11.30;;;4.90;;
6420;SDS011;3243;50.958;7.012;2023-10-09T13:34:00;10.25;;;5.47;;
6420;SDS011;3243;50.958;7.012;2023-10-09T13:36:29;9.32;;;4.93;;
6420;SDS011;3243;50.958;7.012;2023-10-09T13:39:02;9.65;;;4.80;;
6420;SDS011;3243;50.958;7.012;2023-10-09T13:41:48;11.82;;;5.07;;
6420;SDS011;3243;50.958;7.012;2023-10-09T13:44:30;9.75;;;5.50;;
6420;SDS011;3243;50.958;7.012;2023-10-09T13:46:58;12.43;;;5.15;;
6420;SDS011;3243;50.958;7.012;2023-10-09T13:49:32;10.93;;;5.38;;
6420;SDS011;3243;50.958;7.012;2023-10-09T13:52:00;9.55;;;5.00;;
6420;SDS011;3243;50.958;7.012;2023-10-09T13:54:28;13.23;;;5.38;;
6420;SDS011;3243;50.958;7.012;2023-10-09T13:56:59;9.55;;;5.50;;
6420;SDS011;3243;50.958;7.012;2023-10-09T13:59:26;9.52;;;5.40;;
6420;SDS011;3243;50.958;7.012;2023-10-09T14:01:54;10.68;;;5.28;;
6420;SDS011;3243;50.958;7.012;2023-10-09T14:04:22;8.57;;;5.43;;
6420;SDS011;3243;50.958;7.012;2023-10-09T14:06:49;11.18;;;5.32;;
6420;SDS011;3243;50.958;7.012;2023-10-09T14:09:27;12.00;;;5.72;;
6420;SDS011;3243;50.958;7.012;2023-10-09T14:11:57;7.93;;;5.25;;
6420;SDS011;3243;50.958;7.012;2023-10-09T14:14:38;10.35;;;5.57;;
6420;SDS011;3243;50.958;7.012;2023-10-09T14:17:16;9.23;;;5.20;;
6420;SDS011;3243;50.958;7.012;2023-10-09T14:19:52;11.15;;;5.40;;
6420;SDS011;3243;50.958;7.012;2023-10-09T14:22:20;10.90;;;5.30;;
6420;SDS011;3243;50.958;7.012;2023-10-09T14:24:53;8.43;;;5.45;;
6420;SDS011;3243;50.958;7.012;2023-10-09T14:27:25;10.57;;;5.80;;
6420;SDS011;3243;50.958;7.012;2023-10-09T14:29:55;11.88;;;5.85;;
6420;SDS011;3243;50.958;7.012;2023-10-09T14:32:25;10.23;;;5.18;;
6420;SDS011;3243;50.958;7.012;2023-10-09T14:34:55;8.27;;;5.35;;
6420;SDS011;3243;50.958;7.012;2023-10-09T14:37:27;10.70;;;5.53;;
6420;SDS011;3243;50.958;7.012;2023-10-09T14:39:57;10.10;;;6.50;;
6420;SDS011;3243;50.958;7.012;2023-10-09T14:42:25;10.05;;;5.82;;
6420;SDS011;3243;50.958;7.012;2023-10-09T14:44:54;12.02;;;6.53;;
6420;SDS011;3243;50.958;7.012;2023-10-09T14:47:22;9.85;;;6.50;;
6420;SDS011;3243;50.958;7.012;2023-10-09T14:49:49;12.85;;;7.30;;
6420;SDS011;3243;50.958;7.012;2023-10-09T14:52:16;14.75;;;10.27;;
6420;SDS011;3243;50.958;7.012;2023-10-09T14:54:43;14.95;;;7.15;;
6420;SDS011;3243;50.958;7.012;2023-10-09T14:57:14;15.30;;;7.35;;
6420;SDS011;3243;50.958;7.012;2023-10-09T14:59:41;9.23;;;6.25;;
6420;SDS011;3243;50.958;7.012;2023-10-09T15:02:10;11.07;;;6.40;;
6420;SDS011;3243;50.958;7.012;2023-10-09T15:04:39;12.68;;;6.50;;
6420;SDS011;3243;50.958;7.012;2023-10-09T15:07:06;13.40;;;7.57;;
6420;SDS011;3243;50.958;7.012;2023-10-09T15:09:34;10.23;;;6.40;;
6420;SDS011;3243;50.958;7.012;2023-10-09T15:12:03;13.27;;;5.70;;
6420;SDS011;3243;50.958;7.012;2023-10-09T15:14:34;16.88;;;9.40;;
6420;SDS011;3243;50.958;7.012;2023-10-09T15:17:01;19.02;;;12.27;;
6420;SDS011;3243;50.958;7.012;2023-10-09T15:19:29;11.65;;;6.40;;
6420;SDS011;3243;50.958;7.012;2023-10-09T15:21:57;9.52;;;5.80;;
6420;SDS011;3243;50.958;7.012;2023-10-09T15:24:25;16.23;;;9.75;;
6420;SDS011;3243;50.958;7.012;2023-10-09T15:26:54;36.78;;;26.23;;
6420;SDS011;3243;50.958;7.012;2023-10-09T15:29:25;15.80;;;9.90;;
6420;SDS011;3243;50.958;7.012;2023-10-09T15:31:57;15.82;;;7.97;;
6420;SDS011;3243;50.958;7.012;2023-10-09T15:34:31;12.65;;;7.22;;
6420;SDS011;3243;50.958;7.012;2023-10-09T15:37:01;14.32;;;7.80;;
6420;SDS011;3243;50.958;7.012;2023-10-09T15:39:30;10.25;;;5.70;;
6420;SDS011;3243;50.958;7.012;2023-10-09T15:41:58;62.45;;;19.55;;
6420;SDS011;3243;50.958;7.012;2023-10-09T15:44:25;51.10;;;19.52;;
6420;SDS011;3243;50.958;7.012;2023-10-09T15:46:53;16.40;;;8.85;;
6420;SDS011;3243;50.958;7.012;2023-10-09T15:49:26;12.38;;;6.57;;
6420;SDS011;3243;50.958;7.012;2023-10-09T15:51:56;10.52;;;6.78;;
6420;SDS011;3243;50.958;7.012;2023-10-09T15:54:24;13.85;;;6.68;;
6420;SDS011;3243;50.958;7.012;2023-10-09T15:56:53;9.30;;;6.88;;
6420;SDS011;3243;50.958;7.012;2023-10-09T15:59:27;11.93;;;6.40;;
6420;SDS011;3243;50.958;7.012;2023-10-09T16:01:54;8.05;;;5.35;;
6420;SDS011;3243;50.958;7.012;2023-10-09T16:04:21;8.45;;;5.93;;
6420;SDS011;3243;50.958;7.012;2023-10-09T16:06:48;12.02;;;5.60;;
6420;SDS011;3243;50.958;7.012;2023-10-09T16:09:18;9.27;;;5.45;;
6420;SDS011;3243;50.958;7.012;2023-10-09T16:11:47;9.88;;;5.97;;
6420;SDS011;3243;50.958;7.012;2023-10-09T16:14:14;10.73;;;6.35;;
6420;SDS011;3243;50.958;7.012;2023-10-09T16:16:42;10.63;;;6.28;;
6420;SDS011;3243;50.958;7.012;2023-10-09T16:19:11;10.73;;;6.00;;
6420;SDS011;3243;50.958;7.012;2023-10-09T16:21:38;13.75;;;5.85;;
6420;SDS011;3243;50.958;7.012;2023-10-09T16:24:06;9.32;;;5.80;;
6420;SDS011;3243;50.958;7.012;2023-10-09T16:26:36;9.20;;;5.72;;